Time;durP1;ratioP1;P1;durP2;ratioP2;P2;SDS_P1;SDS_P2;PMS_P1;PMS_P2;Temp;Humidity;BMP_temperature;BMP_pressure;BME280_temperature;BME280_humidity;BME280_pressure;Samples;Min_cycle;Max_cycle;Signal;HPM_P1;HPM_P2
2023/03/09 00:01:20;;;;;;;2.17;1.65;;;;;;;;;;5102215;28;20234;-68
2023/03/09 00:03:47;;;;;;;1.48;1.35;;;;;;;;;;5102359;28;20200;-68
2023/03/09 00:06:13;;;;;;;2.65;1.60;;;;;;;;;;5102165;28;20245;-69
2023/03/09 00:08:39;;;;;;;4.13;1.58;;;;;;;;;;5101740;28;20200;-69
2023/03/09 00:11:06;;;;;;;3.85;1.77;;;;;;;;;;5102093;28;20507;-69
2023/03/09 00:13:33;;;;;;;3.03;1.73;;;;;;;;;;5102108;28;20233;-68
2023/03/09 00:16:08;;;;;;;3.55;1.83;;;;;;;;;;5102199;28;20425;-68
2023/03/09 00:18:34;;;;;;;2.53;1.30;;;;;;;;;;5101890;28;20219;-68
2023/03/09 00:21:02;;;;;;;5.32;1.83;;;;;;;;;;5102048;28;20196;-68
2023/03/09 00:23:29;;;;;;;6.53;1.70;;;;;;;;;;5102101;28;20283;-68
2023/03/09 00:25:55;;;;;;;2.30;1.30;;;;;;;;;;5102086;28;20195;-68
2023/03/09 00:28:21;;;;;;;5.20;2.08;;;;;;;;;;5101870;28;20212;-68
2023/03/09 00:30:47;;;;;;;5.65;1.70;;;;;;;;;;5102140;28;20233;-68
2023/03/09 00:33:15;;;;;;;3.55;1.13;;;;;;;;;;5101802;28;20242;-68
2023/03/09 00:35:41;;;;;;;3.70;1.80;;;;;;;;;;5101986;28;20196;-68
2023/03/09 00:38:08;;;;;;;1.50;1.10;;;;;;;;;;5101470;28;20196;-68
2023/03/09 00:40:34;;;;;;;1.35;1.13;;;;;;;;;;5101968;28;20222;-68
2023/03/09 00:43:00;;;;;;;1.75;0.93;;;;;;;;;;5101934;28;20199;-68
2023/03/09 00:45:26;;;;;;;1.08;0.98;;;;;;;;;;5101800;28;20199;-68
2023/03/09 00:47:52;;;;;;;1.15;0.80;;;;;;;;;;5101571;28;20203;-68
2023/03/09 00:50:20;;;;;;;0.73;0.60;;;;;;;;;;5103615;28;20431;-68
2023/03/09 00:52:46;;;;;;;1.73;0.90;;;;;;;;;;5105359;28;20271;-68
2023/03/09 00:55:13;;;;;;;0.75;0.60;;;;;;;;;;5105351;28;20269;-68
2023/03/09 00:57:39;;;;;;;0.70;0.70;;;;;;;;;;5105327;28;20195;-68
2023/03/09 01:00:06;;;;;;;0.80;0.80;;;;;;;;;;5105264;28;20219;-68
2023/03/09 01:02:33;;;;;;;1.73;0.80;;;;;;;;;;5105211;28;20241;-68
2023/03/09 01:04:59;;;;;;;1.38;0.82;;;;;;;;;;5105706;28;20241;-68
2023/03/09 01:07:28;;;;;;;0.65;0.65;;;;;;;;;;5104843;28;20199;-68
2023/03/09 01:09:54;;;;;;;0.40;0.40;;;;;;;;;;5104929;28;20200;-68
2023/03/09 01:12:21;;;;;;;0.80;0.80;;;;;;;;;;5105221;28;20257;-68
2023/03/09 01:14:48;;;;;;;1.58;0.90;;;;;;;;;;5105058;28;20438;-68
2023/03/09 01:17:14;;;;;;;0.40;0.25;;;;;;;;;;5104908;28;20341;-69
2023/03/09 01:19:41;;;;;;;1.50;0.57;;;;;;;;;;5104627;28;20238;-68
2023/03/09 01:22:08;;;;;;;0.47;0.45;;;;;;;;;;5104733;28;20196;-68
2023/03/09 01:24:35;;;;;;;0.60;0.40;;;;;;;;;;5104871;28;20196;-68
2023/03/09 01:27:01;;;;;;;0.80;0.40;;;;;;;;;;5104832;28;20196;-68
2023/03/09 01:29:28;;;;;;;0.47;0.47;;;;;;;;;;5104628;28;20242;-68
2023/03/09 01:31:54;;;;;;;0.52;0.30;;;;;;;;;;5104582;28;20199;-68
2023/03/09 01:34:20;;;;;;;0.60;0.20;;;;;;;;;;5104532;28;20274;-68
2023/03/09 01:36:46;;;;;;;0.52;0.25;;;;;;;;;;5104661;28;20200;-68
2023/03/09 01:39:13;;;;;;;1.10;0.30;;;;;;;;;;5104507;28;20264;-68
2023/03/09 01:41:40;;;;;;;0.35;0.30;;;;;;;;;;5104614;28;20192;-68
2023/03/09 01:44:10;;;;;;;0.32;0.20;;;;;;;;;;5104518;28;20196;-68
2023/03/09 01:46:38;;;;;;;0.77;0.30;;;;;;;;;;5104242;28;20267;-68
2023/03/09 01:49:10;;;;;;;0.30;0.30;;;;;;;;;;5104180;28;20503;-68
2023/03/09 01:51:40;;;;;;;1.45;0.35;;;;;;;;;;5104488;28;20218;-68
2023/03/09 01:54:08;;;;;;;0.17;0.17;;;;;;;;;;5104308;28;20205;-68
2023/03/09 01:56:34;;;;;;;0.95;0.30;;;;;;;;;;5104122;28;20218;-68
2023/03/09 01:59:03;;;;;;;0.95;0.40;;;;;;;;;;5103963;28;20257;-68
2023/03/09 02:01:29;;;;;;;1.00;0.40;;;;;;;;;;5103114;28;20341;-68
2023/03/09 02:03:59;;;;;;;0.47;0.20;;;;;;;;;;5104180;28;20196;-68
2023/03/09 02:06:25;;;;;;;0.75;0.20;;;;;;;;;;5104024;28;20234;-68
2023/03/09 02:08:55;;;;;;;0.40;0.30;;;;;;;;;;5103639;28;20200;-68
2023/03/09 02:11:21;;;;;;;1.98;0.30;;;;;;;;;;5103949;28;20200;-68
2023/03/09 02:13:49;;;;;;;0.45;0.45;;;;;;;;;;5103666;28;20204;-68
2023/03/09 02:16:17;;;;;;;0.40;0.40;;;;;;;;;;5103604;28;20204;-68
2023/03/09 02:18:43;;;;;;;0.32;0.30;;;;;;;;;;5103586;28;20340;-68
2023/03/09 02:21:11;;;;;;;1.40;0.40;;;;;;;;;;5103697;28;20202;-68
2023/03/09 02:23:40;;;;;;;0.38;0.30;;;;;;;;;;5103636;28;20499;-68
2023/03/09 02:26:10;;;;;;;1.65;0.30;;;;;;;;;;5103538;28;20196;-68
2023/03/09 02:28:38;;;;;;;0.20;0.20;;;;;;;;;;5103041;28;20250;-68
2023/03/09 02:31:05;;;;;;;0.28;0.28;;;;;;;;;;5103668;28;20328;-68
2023/03/09 02:33:31;;;;;;;1.17;0.28;;;;;;;;;;5103769;28;20242;-68
2023/03/09 02:35:59;;;;;;;0.50;0.30;;;;;;;;;;5103441;28;20218;-68
2023/03/09 02:38:25;;;;;;;0.20;0.20;;;;;;;;;;5103261;28;20435;-69
2023/03/09 02:40:51;;;;;;;0.35;0.20;;;;;;;;;;5103229;28;20220;-68
2023/03/09 02:43:20;;;;;;;0.38;0.30;;;;;;;;;;5103142;28;20202;-68
2023/03/09 02:45:48;;;;;;;1.63;0.30;;;;;;;;;;5103192;28;20196;-68
2023/03/09 02:48:14;;;;;;;0.20;0.20;;;;;;;;;;5103061;28;20199;-68
2023/03/09 02:50:40;;;;;;;0.77;0.30;;;;;;;;;;5103252;28;20191;-68
2023/03/09 02:53:06;;;;;;;0.20;0.20;;;;;;;;;;5103304;28;20198;-68
2023/03/09 02:55:33;;;;;;;0.82;0.25;;;;;;;;;;5102947;28;20202;-68
2023/03/09 02:57:59;;;;;;;1.55;0.30;;;;;;;;;;5102710;28;20300;-70
2023/03/09 03:00:26;;;;;;;1.70;0.30;;;;;;;;;;5102834;28;20223;-69
2023/03/09 03:02:53;;;;;;;0.30;0.30;;;;;;;;;;5103041;28;20195;-70
2023/03/09 03:05:20;;;;;;;0.32;0.30;;;;;;;;;;5102717;28;20196;-70
2023/03/09 03:07:46;;;;;;;0.20;0.20;;;;;;;;;;5102658;28;20196;-70
2023/03/09 03:10:12;;;;;;;0.47;0.20;;;;;;;;;;5102859;28;20474;-70
2023/03/09 03:12:39;;;;;;;0.30;0.30;;;;;;;;;;5102870;28;20195;-69
2023/03/09 03:15:06;;;;;;;0.30;0.30;;;;;;;;;;5102777;28;20196;-70
2023/03/09 03:17:32;;;;;;;0.77;0.32;;;;;;;;;;5103078;28;20474;-70
2023/03/09 03:20:00;;;;;;;1.20;0.20;;;;;;;;;;5102283;28;20215;-69
2023/03/09 03:22:26;;;;;;;0.60;0.43;;;;;;;;;;5102777;28;20277;-69
2023/03/09 03:24:52;;;;;;;0.32;0.32;;;;;;;;;;5102738;28;20218;-69
2023/03/09 03:27:19;;;;;;;0.32;0.20;;;;;;;;;;5102515;28;20253;-69
2023/03/09 03:29:46;;;;;;;0.47;0.20;;;;;;;;;;5102317;28;20195;-69
2023/03/09 03:32:12;;;;;;;0.65;0.40;;;;;;;;;;5102517;28;20192;-69
2023/03/09 03:34:38;;;;;;;0.40;0.40;;;;;;;;;;5102361;28;20203;-69
2023/03/09 03:37:06;;;;;;;0.47;0.47;;;;;;;;;;5102379;28;20203;-69
2023/03/09 03:39:32;;;;;;;0.43;0.28;;;;;;;;;;5102256;28;20538;-69
2023/03/09 03:41:58;;;;;;;0.90;0.32;;;;;;;;;;5102539;28;20556;-69
2023/03/09 03:44:25;;;;;;;0.68;0.40;;;;;;;;;;5102138;28;20258;-69
2023/03/09 03:46:51;;;;;;;0.60;0.40;;;;;;;;;;5102357;28;20222;-69
2023/03/09 03:49:17;;;;;;;1.17;0.40;;;;;;;;;;5102390;28;20492;-69
2023/03/09 03:51:43;;;;;;;0.47;0.40;;;;;;;;;;5102391;28;20196;-69
2023/03/09 03:54:11;;;;;;;0.40;0.40;;;;;;;;;;5102372;28;20203;-69
2023/03/09 03:56:37;;;;;;;1.10;0.50;;;;;;;;;;5102103;28;20233;-69
2023/03/09 03:59:04;;;;;;;3.97;0.30;;;;;;;;;;5101926;28;20259;-69
2023/03/09 04:01:30;;;;;;;0.43;0.28;;;;;;;;;;5102223;28;20470;-69
2023/03/09 04:03:56;;;;;;;1.25;0.28;;;;;;;;;;5102099;28;20203;-69
2023/03/09 04:06:23;;;;;;;0.47;0.40;;;;;;;;;;5102164;28;20202;-69
2023/03/09 04:08:49;;;;;;;1.85;0.90;;;;;;;;;;5101986;28;20554;-69
2023/03/09 04:11:17;;;;;;;0.52;0.52;;;;;;;;;;5102537;28;20428;-69
2023/03/09 04:13:43;;;;;;;1.08;0.30;;;;;;;;;;5101898;28;20200;-69
2023/03/09 04:16:09;;;;;;;0.60;0.40;;;;;;;;;;5102054;28;20361;-69
2023/03/09 04:18:35;;;;;;;0.88;0.88;;;;;;;;;;5101582;28;20202;-69
2023/03/09 04:21:02;;;;;;;2.10;0.88;;;;;;;;;;5101874;28;20229;-69
2023/03/09 04:23:28;;;;;;;0.80;0.60;;;;;;;;;;5102019;28;20267;-69
2023/03/09 04:25:55;;;;;;;1.35;0.70;;;;;;;;;;5105069;28;20203;-69
2023/03/09 04:28:22;;;;;;;1.40;0.80;;;;;;;;;;5105829;28;20259;-69
2023/03/09 04:30:49;;;;;;;4.55;0.93;;;;;;;;;;5105826;28;20199;-69
2023/03/09 04:33:15;;;;;;;4.95;1.05;;;;;;;;;;5106047;28;20200;-69
2023/03/09 04:35:42;;;;;;;2.00;1.10;;;;;;;;;;5105701;28;20195;-69
2023/03/09 04:38:08;;;;;;;2.13;0.98;;;;;;;;;;5105715;28;20195;-69
2023/03/09 04:40:35;;;;;;;3.20;0.90;;;;;;;;;;5105717;28;20215;-69
2023/03/09 04:43:01;;;;;;;4.45;1.35;;;;;;;;;;5105625;28;20550;-69
2023/03/09 04:45:29;;;;;;;2.30;0.80;;;;;;;;;;5105578;28;20196;-69
2023/03/09 04:47:55;;;;;;;2.20;0.95;;;;;;;;;;5105569;28;20518;-69
2023/03/09 04:50:21;;;;;;;4.18;1.20;;;;;;;;;;5105570;28;20192;-69
2023/03/09 04:52:49;;;;;;;6.32;1.52;;;;;;;;;;5105557;28;20424;-69
2023/03/09 04:55:15;;;;;;;8.55;1.38;;;;;;;;;;5105540;28;20491;-69
2023/03/09 04:57:42;;;;;;;2.28;1.30;;;;;;;;;;5105143;28;20203;-69
2023/03/09 05:00:10;;;;;;;7.15;1.38;;;;;;;;;;5105216;28;20249;-69
2023/03/09 05:02:38;;;;;;;7.70;1.73;;;;;;;;;;5105599;28;20219;-69
2023/03/09 05:05:05;;;;;;;6.90;1.55;;;;;;;;;;5105371;28;20196;-69
2023/03/09 05:07:31;;;;;;;5.78;1.42;;;;;;;;;;5105122;28;20263;-69
2023/03/09 05:09:57;;;;;;;3.85;1.27;;;;;;;;;;5104874;28;20214;-69
2023/03/09 05:12:30;;;;;;;4.65;1.10;;;;;;;;;;5105110;28;20203;-69
2023/03/09 05:14:57;;;;;;;5.47;1.40;;;;;;;;;;5105081;28;20199;-69
2023/03/09 05:17:23;;;;;;;7.63;1.60;;;;;;;;;;5104925;28;20207;-69
2023/03/09 05:19:50;;;;;;;3.70;1.50;;;;;;;;;;5104717;28;20215;-69
2023/03/09 05:22:17;;;;;;;11.68;1.67;;;;;;;;;;5104911;28;20196;-69
2023/03/09 05:24:43;;;;;;;6.35;1.27;;;;;;;;;;5104841;28;20200;-69
2023/03/09 05:27:09;;;;;;;6.15;1.15;;;;;;;;;;5104615;28;20309;-69
2023/03/09 05:29:36;;;;;;;5.82;1.73;;;;;;;;;;5104486;28;20199;-69
2023/03/09 05:32:02;;;;;;;6.53;1.80;;;;;;;;;;5104769;28;20207;-69
2023/03/09 05:34:28;;;;;;;6.03;1.73;;;;;;;;;;5104920;28;20218;-70
2023/03/09 05:36:56;;;;;;;3.25;1.58;;;;;;;;;;5103509;28;20261;-70
2023/03/09 05:39:22;;;;;;;5.50;2.00;;;;;;;;;;5104642;28;20202;-70
2023/03/09 05:41:48;;;;;;;7.72;1.85;;;;;;;;;;5104500;28;20198;-70
2023/03/09 05:44:15;;;;;;;5.05;1.35;;;;;;;;;;5104750;28;20210;-70
2023/03/09 05:46:41;;;;;;;6.35;1.40;;;;;;;;;;5104599;28;20427;-70
2023/03/09 05:49:07;;;;;;;7.72;1.73;;;;;;;;;;5104583;28;20207;-70
2023/03/09 05:51:34;;;;;;;5.03;1.50;;;;;;;;;;5104274;28;20196;-70
2023/03/09 05:54:02;;;;;;;7.70;1.67;;;;;;;;;;5104154;28;20195;-70
2023/03/09 05:56:28;;;;;;;9.13;1.65;;;;;;;;;;5104038;28;20200;-70
2023/03/09 05:58:56;;;;;;;5.07;1.23;;;;;;;;;;5103876;28;20500;-70
2023/03/09 06:01:23;;;;;;;6.30;1.63;;;;;;;;;;5104193;28;20215;-70
2023/03/09 06:03:50;;;;;;;5.00;1.33;;;;;;;;;;5103824;28;20210;-70
2023/03/09 06:06:16;;;;;;;4.50;1.27;;;;;;;;;;5104321;28;20391;-70
2023/03/09 06:08:43;;;;;;;8.20;1.42;;;;;;;;;;5103443;28;20233;-70
2023/03/09 06:11:11;;;;;;;7.30;1.58;;;;;;;;;;5104011;28;20437;-70
2023/03/09 06:13:37;;;;;;;8.52;1.77;;;;;;;;;;5104126;28;20196;-70
2023/03/09 06:16:04;;;;;;;8.13;1.67;;;;;;;;;;5103744;28;20206;-70
2023/03/09 06:18:30;;;;;;;8.10;1.67;;;;;;;;;;5103744;28;20196;-70
2023/03/09 06:21:00;;;;;;;4.95;1.73;;;;;;;;;;5104153;28;20223;-70
2023/03/09 06:23:26;;;;;;;6.30;1.55;;;;;;;;;;5103459;28;20200;-70
2023/03/09 06:25:53;;;;;;;4.57;1.38;;;;;;;;;;5103662;28;20191;-70
2023/03/09 06:28:20;;;;;;;5.35;1.58;;;;;;;;;;5103305;28;20216;-70
2023/03/09 06:30:47;;;;;;;5.88;2.20;;;;;;;;;;5103426;28;20219;-70
2023/03/09 06:33:13;;;;;;;5.18;1.88;;;;;;;;;;5103510;28;20233;-70
2023/03/09 06:35:40;;;;;;;7.30;2.13;;;;;;;;;;5103372;28;20204;-70
2023/03/09 06:38:06;;;;;;;9.13;2.35;;;;;;;;;;5103096;28;20284;-69
2023/03/09 06:40:32;;;;;;;5.75;2.10;;;;;;;;;;5103484;28;20566;-69
2023/03/09 06:42:59;;;;;;;4.50;2.05;;;;;;;;;;5103395;28;20217;-70
2023/03/09 06:45:26;;;;;;;8.85;1.60;;;;;;;;;;5103409;28;20202;-70
2023/03/09 06:47:54;;;;;;;7.13;1.90;;;;;;;;;;5102901;28;20196;-70
2023/03/09 06:50:20;;;;;;;7.68;2.60;;;;;;;;;;5101786;28;20431;-61
2023/03/09 06:52:46;;;;;;;7.90;3.17;;;;;;;;;;5080952;28;20216;-62
2023/03/09 06:55:12;;;;;;;7.32;2.47;;;;;;;;;;5097357;28;20208;-61
2023/03/09 06:57:38;;;;;;;3.78;1.52;;;;;;;;;;5096926;28;20212;-62
2023/03/09 07:00:06;;;;;;;8.13;1.95;;;;;;;;;;5091189;28;20253;-61
2023/03/09 07:02:34;;;;;;;6.47;1.73;;;;;;;;;;5084478;28;20215;-61
2023/03/09 07:05:00;;;;;;;5.40;2.03;;;;;;;;;;5094886;28;20212;-61
2023/03/09 07:07:26;;;;;;;4.00;1.67;;;;;;;;;;5077201;28;20215;-61
2023/03/09 07:09:53;;;;;;;3.60;1.30;;;;;;;;;;5086638;28;20341;-61
2023/03/09 07:12:19;;;;;;;4.25;1.52;;;;;;;;;;5088406;28;20283;-61
2023/03/09 07:14:46;;;;;;;3.78;1.40;;;;;;;;;;5080549;28;20271;-62
2023/03/09 07:17:13;;;;;;;5.35;1.52;;;;;;;;;;5095865;28;20264;-61
2023/03/09 07:19:40;;;;;;;9.20;2.22;;;;;;;;;;5094970;28;20421;-62
2023/03/09 07:22:07;;;;;;;7.65;1.83;;;;;;;;;;5094495;28;20574;-61
2023/03/09 07:24:34;;;;;;;2.08;1.20;;;;;;;;;;5090079;28;20519;-61
2023/03/09 07:27:01;;;;;;;7.78;1.40;;;;;;;;;;5091619;28;20220;-61
2023/03/09 07:29:27;;;;;;;8.40;2.00;;;;;;;;;;5092628;28;20218;-62
2023/03/09 07:31:53;;;;;;;8.82;1.80;;;;;;;;;;5093681;28;20212;-61
2023/03/09 07:34:19;;;;;;;6.55;3.42;;;;;;;;;;5093482;28;20216;-61
2023/03/09 07:36:48;;;;;;;6.75;2.58;;;;;;;;;;5094611;28;20663;-60
2023/03/09 07:39:14;;;;;;;6.05;2.13;;;;;;;;;;5094942;28;20211;-60
2023/03/09 07:41:41;;;;;;;5.25;2.30;;;;;;;;;;5093706;28;20231;-61
2023/03/09 07:44:07;;;;;;;8.40;2.33;;;;;;;;;;5093129;28;20211;-61
2023/03/09 07:46:34;;;;;;;4.53;1.73;;;;;;;;;;5094002;28;20203;-61
2023/03/09 07:49:00;;;;;;;5.00;1.70;;;;;;;;;;5093544;28;20657;-61
2023/03/09 07:51:26;;;;;;;1.95;1.40;;;;;;;;;;5094798;28;20211;-61
2023/03/09 07:53:54;;;;;;;4.57;1.70;;;;;;;;;;5092839;28;20210;-60
2023/03/09 07:56:20;;;;;;;4.75;1.38;;;;;;;;;;5094021;28;20211;-61
2023/03/09 07:58:46;;;;;;;6.72;1.70;;;;;;;;;;5093851;28;20211;-61
2023/03/09 08:01:16;;;;;;;4.07;1.63;;;;;;;;;;5097343;28;20220;-60
2023/03/09 08:03:42;;;;;;;7.07;2.22;;;;;;;;;;5096974;28;20425;-60
2023/03/09 08:06:09;;;;;;;5.85;1.25;;;;;;;;;;5098729;28;20409;-60
2023/03/09 08:08:36;;;;;;;3.13;1.20;;;;;;;;;;5097162;28;20223;-61
2023/03/09 08:11:04;;;;;;;6.18;1.50;;;;;;;;;;5098417;28;21115;-61
2023/03/09 08:13:30;;;;;;;5.30;1.48;;;;;;;;;;5094385;28;20431;-61
2023/03/09 08:15:59;;;;;;;3.70;1.23;;;;;;;;;;5098459;28;20211;-61
2023/03/09 08:18:25;;;;;;;4.65;1.30;;;;;;;;;;5098279;28;20402;-61
2023/03/09 08:20:55;;;;;;;4.30;1.45;;;;;;;;;;5087144;28;20243;-62
2023/03/09 08:23:21;;;;;;;4.50;1.10;;;;;;;;;;5088599;28;20207;-62
2023/03/09 08:25:53;;;;;;;2.47;0.90;;;;;;;;;;5085625;28;20211;-60
2023/03/09 08:28:20;;;;;;;3.60;1.15;;;;;;;;;;5083999;28;20566;-62
2023/03/09 08:30:47;;;;;;;1.63;0.82;;;;;;;;;;5085905;28;20226;-62
2023/03/09 08:33:13;;;;;;;1.15;1.00;;;;;;;;;;5089922;28;20207;-62
2023/03/09 08:35:39;;;;;;;4.28;1.15;;;;;;;;;;5098970;28;20235;-62
2023/03/09 08:38:05;;;;;;;3.63;1.27;;;;;;;;;;5097746;28;20211;-59
2023/03/09 08:40:32;;;;;;;4.90;1.17;;;;;;;;;;5098606;28;20219;-59
2023/03/09 08:42:58;;;;;;;3.92;0.90;;;;;;;;;;5098311;28;20237;-61
2023/03/09 08:45:26;;;;;;;6.68;1.60;;;;;;;;;;5098801;28;20211;-60
2023/03/09 08:47:52;;;;;;;3.72;1.02;;;;;;;;;;5098185;28;20486;-60
2023/03/09 08:50:18;;;;;;;3.50;1.00;;;;;;;;;;5098157;28;20212;-60
2023/03/09 08:52:44;;;;;;;2.35;1.20;;;;;;;;;;5098207;28;20253;-60
2023/03/09 08:55:11;;;;;;;5.50;1.20;;;;;;;;;;5098444;28;20425;-61
2023/03/09 08:57:37;;;;;;;4.20;0.85;;;;;;;;;;5097923;28;20424;-60
2023/03/09 09:00:04;;;;;;;3.60;1.08;;;;;;;;;;5098291;28;20211;-60
2023/03/09 09:02:32;;;;;;;4.95;1.00;;;;;;;;;;5096850;28;20253;-60
2023/03/09 09:04:58;;;;;;;1.90;1.02;;;;;;;;;;5099128;28;20207;-61
2023/03/09 09:07:24;;;;;;;0.80;0.80;;;;;;;;;;5097762;28;20216;-60
2023/03/09 09:09:51;;;;;;;2.75;1.02;;;;;;;;;;5097323;28;20212;-61
2023/03/09 09:12:17;;;;;;;2.03;0.80;;;;;;;;;;5096888;28;20207;-60
2023/03/09 09:14:43;;;;;;;3.35;1.00;;;;;;;;;;5098102;28;20212;-60
2023/03/09 09:17:11;;;;;;;3.83;1.27;;;;;;;;;;5097966;28;20211;-60
2023/03/09 09:19:39;;;;;;;3.53;1.02;;;;;;;;;;5098075;28;20440;-60
2023/03/09 09:22:06;;;;;;;3.08;0.88;;;;;;;;;;5096393;28;20551;-60
2023/03/09 09:24:34;;;;;;;2.97;1.33;;;;;;;;;;5098125;28;20448;-60
2023/03/09 09:27:00;;;;;;;1.52;0.90;;;;;;;;;;5097421;28;20270;-61
2023/03/09 09:29:27;;;;;;;4.53;1.00;;;;;;;;;;5097719;28;20301;-60
2023/03/09 09:31:54;;;;;;;2.50;1.20;;;;;;;;;;5097830;28;20234;-61
2023/03/09 09:34:21;;;;;;;3.33;1.10;;;;;;;;;;5097379;28;20307;-61
2023/03/09 09:36:49;;;;;;;3.65;0.85;;;;;;;;;;5097349;28;20220;-60
2023/03/09 09:39:15;;;;;;;4.70;1.02;;;;;;;;;;5097439;28;20212;-61
2023/03/09 09:41:43;;;;;;;4.10;0.98;;;;;;;;;;5097222;28;20235;-62
2023/03/09 09:44:12;;;;;;;5.32;0.93;;;;;;;;;;5097119;28;20211;-60
2023/03/09 09:46:39;;;;;;;2.03;0.88;;;;;;;;;;5096711;28;20212;-61
2023/03/09 09:49:06;;;;;;;2.55;0.88;;;;;;;;;;5097082;28;20220;-61
2023/03/09 09:51:41;;;;;;;1.48;0.65;;;;;;;;;;5095915;28;20230;-60
2023/03/09 09:54:13;;;;;;;5.30;1.20;;;;;;;;;;5096834;28;20511;-60
2023/03/09 09:56:45;;;;;;;2.45;0.65;;;;;;;;;;5097506;28;20208;-60
2023/03/09 09:59:15;;;;;;;1.52;0.82;;;;;;;;;;5097252;28;20218;-61
2023/03/09 10:01:45;;;;;;;2.78;0.70;;;;;;;;;;5096132;28;20222;-60
2023/03/09 10:04:15;;;;;;;2.55;0.80;;;;;;;;;;5096173;28;20220;-61
2023/03/09 10:06:41;;;;;;;1.25;0.80;;;;;;;;;;5097071;28;20212;-60
2023/03/09 10:09:10;;;;;;;5.88;0.80;;;;;;;;;;5096156;28;20215;-61
2023/03/09 10:11:41;;;;;;;1.50;0.70;;;;;;;;;;5096142;28;20207;-60
2023/03/09 10:14:11;;;;;;;2.90;0.80;;;;;;;;;;5096224;28;20208;-60
2023/03/09 10:16:40;;;;;;;3.88;0.82;;;;;;;;;;5096534;28;20580;-61
2023/03/09 10:19:11;;;;;;;2.60;0.70;;;;;;;;;;5096222;28;20241;-61
2023/03/09 10:21:41;;;;;;;4.18;0.70;;;;;;;;;;5095750;28;20558;-60
2023/03/09 10:24:13;;;;;;;2.35;1.00;;;;;;;;;;5095908;28;20269;-60
2023/03/09 10:26:43;;;;;;;1.05;0.60;;;;;;;;;;5096399;28;20246;-60
2023/03/09 10:29:13;;;;;;;2.55;1.08;;;;;;;;;;5096189;28;20326;-61
2023/03/09 10:31:43;;;;;;;2.67;1.25;;;;;;;;;;5097205;28;20472;-60
2023/03/09 10:34:13;;;;;;;3.45;0.90;;;;;;;;;;5095755;28;20218;-61
2023/03/09 10:36:42;;;;;;;3.70;1.02;;;;;;;;;;5096725;28;20215;-60
2023/03/09 10:39:12;;;;;;;2.20;0.85;;;;;;;;;;5095752;28;20212;-61
2023/03/09 10:41:39;;;;;;;3.63;1.02;;;;;;;;;;5095889;28;20242;-61
2023/03/09 10:44:07;;;;;;;5.38;1.13;;;;;;;;;;5095969;28;20208;-60
2023/03/09 10:46:54;;;;;;;2.25;0.60;;;;;;;;;;5095555;28;20284;-60
2023/03/09 10:49:20;;;;;;;4.03;0.88;;;;;;;;;;5095603;28;20275;-60
2023/03/09 10:51:54;;;;;;;3.17;0.80;;;;;;;;;;5095163;28;20232;-60
2023/03/09 10:54:23;;;;;;;7.38;0.80;;;;;;;;;;5086521;28;20218;-61
2023/03/09 10:56:51;;;;;;;4.30;1.00;;;;;;;;;;5096190;28;20211;-61
2023/03/09 10:59:19;;;;;;;3.05;0.95;;;;;;;;;;5096181;28;20246;-61
2023/03/09 11:01:47;;;;;;;7.32;1.08;;;;;;;;;;5095869;28;20254;-61
2023/03/09 11:04:27;;;;;;;4.78;1.10;;;;;;;;;;5095958;28;20253;-61
2023/03/09 11:06:54;;;;;;;3.78;1.10;;;;;;;;;;5095053;28;20226;-61
2023/03/09 11:09:22;;;;;;;3.83;1.08;;;;;;;;;;5096294;28;20220;-61
2023/03/09 11:11:49;;;;;;;3.45;0.90;;;;;;;;;;5095163;28;20214;-61
2023/03/09 11:14:25;;;;;;;2.70;1.00;;;;;;;;;;5095357;28;20253;-61
2023/03/09 11:16:52;;;;;;;2.13;0.70;;;;;;;;;;5095096;28;20219;-61
2023/03/09 11:19:19;;;;;;;5.20;1.15;;;;;;;;;;5095290;28;20219;-61
2023/03/09 11:21:50;;;;;;;2.70;1.00;;;;;;;;;;5094193;28;20231;-61
2023/03/09 11:24:17;;;;;;;7.57;1.25;;;;;;;;;;5095413;28;20215;-61
2023/03/09 11:26:44;;;;;;;4.55;1.30;;;;;;;;;;5095565;28;20216;-61
2023/03/09 11:29:15;;;;;;;2.60;0.77;;;;;;;;;;5094884;28;20231;-61
2023/03/09 11:31:43;;;;;;;2.75;1.20;;;;;;;;;;5095028;28;20208;-61
2023/03/09 11:34:14;;;;;;;4.18;1.13;;;;;;;;;;5094684;28;20218;-61
2023/03/09 11:36:43;;;;;;;5.28;1.20;;;;;;;;;;5094837;28;20212;-61
2023/03/09 11:39:14;;;;;;;3.30;1.10;;;;;;;;;;5094710;28;20215;-61
2023/03/09 11:41:41;;;;;;;4.32;1.00;;;;;;;;;;5095348;28;20250;-61
2023/03/09 11:44:10;;;;;;;4.40;1.20;;;;;;;;;;5095537;28;20421;-61
2023/03/09 11:46:37;;;;;;;3.60;1.02;;;;;;;;;;5094621;28;20208;-61
2023/03/09 11:49:08;;;;;;;3.63;1.15;;;;;;;;;;5094276;28;20511;-61
2023/03/09 11:51:37;;;;;;;3.42;1.20;;;;;;;;;;5078855;28;20211;-61
2023/03/09 11:54:07;;;;;;;6.93;1.27;;;;;;;;;;5094550;28;20215;-61
2023/03/09 11:56:35;;;;;;;4.15;1.20;;;;;;;;;;5094804;28;20211;-61
2023/03/09 11:59:06;;;;;;;2.78;1.00;;;;;;;;;;5095138;28;20215;-61
2023/03/09 12:01:35;;;;;;;3.90;1.05;;;;;;;;;;5094706;28;20222;-61
2023/03/09 12:04:03;;;;;;;4.00;1.23;;;;;;;;;;5090422;28;20215;-61
2023/03/09 12:06:41;;;;;;;6.18;0.90;;;;;;;;;;5094697;28;20211;-61
2023/03/09 12:09:11;;;;;;;3.58;1.20;;;;;;;;;;5090983;28;20227;-61
2023/03/09 12:11:39;;;;;;;3.90;1.15;;;;;;;;;;5094572;28;20215;-61
2023/03/09 12:14:10;;;;;;;5.22;1.17;;;;;;;;;;5094050;28;20199;-61
2023/03/09 12:16:39;;;;;;;4.25;0.95;;;;;;;;;;5094759;28;20535;-61
2023/03/09 12:19:12;;;;;;;4.95;1.00;;;;;;;;;;5094227;28;20212;-61
2023/03/09 12:21:40;;;;;;;4.22;0.90;;;;;;;;;;5094091;28;20211;-61
2023/03/09 12:24:19;;;;;;;2.83;1.00;;;;;;;;;;5093770;28;20438;-61
2023/03/09 12:26:45;;;;;;;3.25;0.90;;;;;;;;;;5095110;28;20247;-61
2023/03/09 12:29:17;;;;;;;6.97;3.80;;;;;;;;;;5094183;28;20576;-61
2023/03/09 12:31:43;;;;;;;7.15;1.02;;;;;;;;;;5094339;28;20218;-61
2023/03/09 12:34:24;;;;;;;4.63;1.02;;;;;;;;;;5094026;28;20211;-61
2023/03/09 12:36:52;;;;;;;4.38;0.88;;;;;;;;;;5094484;28;20259;-61
2023/03/09 12:39:36;;;;;;;2.63;0.95;;;;;;;;;;5094509;28;20219;-61
2023/03/09 12:42:04;;;;;;;2.35;0.70;;;;;;;;;;5093949;28;20445;-61
2023/03/09 12:44:49;;;;;;;3.28;1.05;;;;;;;;;;5082112;28;20517;-61
2023/03/09 12:47:21;;;;;;;1.85;0.80;;;;;;;;;;5096564;28;20238;-61
2023/03/09 12:49:49;;;;;;;1.65;0.82;;;;;;;;;;5097489;28;20527;-61
2023/03/09 12:52:31;;;;;;;4.18;1.00;;;;;;;;;;5097268;28;20207;-61
2023/03/09 12:54:59;;;;;;;4.85;1.00;;;;;;;;;;5098008;28;20208;-61
2023/03/09 12:57:25;;;;;;;1.75;0.90;;;;;;;;;;5097320;28;20203;-62
2023/03/09 12:59:52;;;;;;;4.45;1.27;;;;;;;;;;5097698;28;20216;-61
2023/03/09 13:02:23;;;;;;;2.55;0.80;;;;;;;;;;5096444;28;20558;-61
2023/03/09 13:05:04;;;;;;;5.68;1.08;;;;;;;;;;5097518;28;20211;-61
2023/03/09 13:07:31;;;;;;;3.58;1.00;;;;;;;;;;5096805;28;20512;-61
2023/03/09 13:09:58;;;;;;;3.65;1.10;;;;;;;;;;5097246;28;20298;-61
2023/03/09 13:12:29;;;;;;;3.92;2.33;;;;;;;;;;5096943;28;20478;-61
2023/03/09 13:15:14;;;;;;;5.18;1.40;;;;;;;;;;5097653;28;20427;-61
2023/03/09 13:17:41;;;;;;;8.30;1.38;;;;;;;;;;5096411;28;20333;-61
2023/03/09 13:20:18;;;;;;;3.55;1.17;;;;;;;;;;5097234;28;20218;-61
2023/03/09 13:22:46;;;;;;;5.65;1.27;;;;;;;;;;5096559;28;20280;-61
2023/03/09 13:25:31;;;;;;;4.25;0.95;;;;;;;;;;5097257;28;20212;-61
2023/03/09 13:28:02;;;;;;;5.15;1.40;;;;;;;;;;5096888;28;20607;-61
2023/03/09 13:30:29;;;;;;;2.60;0.93;;;;;;;;;;5089010;28;20211;-61
2023/03/09 13:33:00;;;;;;;4.03;1.13;;;;;;;;;;5095420;28;20208;-61
2023/03/09 13:35:32;;;;;;;2.95;0.82;;;;;;;;;;5097393;28;20213;-61
2023/03/09 13:38:00;;;;;;;2.53;0.90;;;;;;;;;;5096762;28;20375;-61
2023/03/09 13:40:28;;;;;;;1.98;1.02;;;;;;;;;;5095787;28;20253;-61
2023/03/09 13:42:56;;;;;;;2.65;0.95;;;;;;;;;;5095968;28;20427;-61
2023/03/09 13:45:23;;;;;;;1.73;0.98;;;;;;;;;;5095267;28;20488;-61
2023/03/09 13:47:52;;;;;;;3.80;1.20;;;;;;;;;;5089632;28;20212;-61
2023/03/09 13:50:19;;;;;;;4.18;0.93;;;;;;;;;;5089489;28;20415;-60
2023/03/09 13:52:59;;;;;;;3.60;0.80;;;;;;;;;;5094891;28;20211;-60
2023/03/09 13:55:27;;;;;;;4.88;1.05;;;;;;;;;;5095278;28;20588;-61
2023/03/09 13:57:53;;;;;;;3.30;0.73;;;;;;;;;;5086736;28;20203;-61
2023/03/09 14:00:22;;;;;;;2.92;0.90;;;;;;;;;;5084930;28;20495;-61
2023/03/09 14:02:48;;;;;;;3.72;0.73;;;;;;;;;;5085164;28;20216;-61
2023/03/09 14:05:19;;;;;;;2.25;0.70;;;;;;;;;;5089182;28;20397;-61
2023/03/09 14:07:47;;;;;;;2.45;0.90;;;;;;;;;;5083174;28;20206;-61
2023/03/09 14:10:20;;;;;;;4.72;0.98;;;;;;;;;;5093696;28;20219;-61
2023/03/09 14:12:48;;;;;;;2.83;0.73;;;;;;;;;;5095775;28;20200;-61
2023/03/09 14:15:16;;;;;;;2.92;0.90;;;;;;;;;;5096874;28;20405;-61
2023/03/09 14:17:43;;;;;;;3.20;1.02;;;;;;;;;;5096572;28;20219;-61
2023/03/09 14:20:15;;;;;;;1.52;0.63;;;;;;;;;;5095801;28;20572;-61
2023/03/09 14:22:42;;;;;;;4.03;0.98;;;;;;;;;;5094634;28;20226;-61
2023/03/09 14:25:22;;;;;;;1.08;0.80;;;;;;;;;;5095475;28;20203;-60
2023/03/09 14:27:48;;;;;;;1.30;0.75;;;;;;;;;;5096455;28;20227;-61
2023/03/09 14:30:41;;;;;;;5.65;1.30;;;;;;;;;;5096920;28;20466;-64
2023/03/09 14:33:20;;;;;;;2.45;1.02;;;;;;;;;;5095568;28;20582;-60
2023/03/09 14:35:47;;;;;;;3.38;0.75;;;;;;;;;;5095397;28;20215;-60
2023/03/09 14:38:17;;;;;;;3.00;1.02;;;;;;;;;;5095757;28;20214;-63
2023/03/09 14:40:45;;;;;;;2.42;1.05;;;;;;;;;;5100063;28;20212;-61
2023/03/09 14:43:22;;;;;;;8.85;1.50;;;;;;;;;;5095434;28;20220;-64
2023/03/09 14:45:48;;;;;;;5.53;1.00;;;;;;;;;;5098756;28;20400;-62
2023/03/09 14:48:14;;;;;;;1.73;0.88;;;;;;;;;;5099433;28;20204;-62